createdAt,value
2023-05-13T00:02:41.988Z,8.37
2023-05-13T00:07:43.573Z,9.33
2023-05-13T00:12:44.821Z,9.67
2023-05-13T00:17:46.295Z,10.80
2023-05-13T00:22:47.862Z,10.27
2023-05-13T00:27:49.359Z,11.27
2023-05-13T00:32:51.236Z,9.90
2023-05-13T00:37:52.999Z,12.07
2023-05-13T00:42:54.848Z,11.10
2023-05-13T00:47:57.449Z,11.93
2023-05-13T00:52:59.657Z,11.60
2023-05-13T00:58:01.086Z,13.47
2023-05-13T01:03:08.513Z,13.53
2023-05-13T01:08:32.626Z,12.97
2023-05-13T01:13:39.113Z,12.73
2023-05-13T01:18:45.466Z,13.93
2023-05-13T01:23:47.024Z,14.03
2023-05-13T01:28:49.597Z,14.13
2023-05-13T01:33:52.636Z,15.17
2023-05-13T01:38:55.541Z,16.57
2023-05-13T01:43:57.127Z,16.67
2023-05-13T01:48:58.539Z,16.53
2023-05-13T01:54:00.577Z,19.13
2023-05-13T01:59:02.641Z,17.77
2023-05-13T02:04:05.081Z,19.70
2023-05-13T02:09:06.917Z,19.10
2023-05-13T02:14:08.801Z,20.77
2023-05-13T02:19:10.334Z,20.27
2023-05-13T02:24:13.122Z,22.03
2023-05-13T02:29:14.340Z,20.30
2023-05-13T02:34:16.282Z,21.37
2023-05-13T02:39:17.588Z,18.60
2023-05-13T02:44:19.149Z,18.47
2023-05-13T02:49:20.953Z,20.93
2023-05-13T02:54:23.109Z,20.23
2023-05-13T02:59:24.876Z,21.00
2023-05-13T03:04:26.611Z,21.70
2023-05-13T03:09:28.052Z,20.63
2023-05-13T03:14:29.450Z,20.87
2023-05-13T03:19:32.515Z,22.40
2023-05-13T03:24:33.946Z,21.50
2023-05-13T03:29:36.587Z,22.57
2023-05-13T03:34:38.293Z,22.03
2023-05-13T03:39:40.106Z,23.30
2023-05-13T03:44:41.590Z,23.03
2023-05-13T03:49:47.342Z,23.10
2023-05-13T03:54:49.177Z,23.83
2023-05-13T03:59:50.546Z,22.17
2023-05-13T04:04:53.596Z,21.07
2023-05-13T04:09:54.981Z,21.60
2023-05-13T04:14:56.647Z,24.07
2023-05-13T04:19:58.839Z,22.13
2023-05-13T04:25:00.533Z,20.77
2023-05-13T04:30:02.260Z,20.47
2023-05-13T04:35:07.730Z,21.10
2023-05-13T04:40:10.656Z,21.93
2023-05-13T04:45:12.202Z,21.47
2023-05-13T04:50:13.687Z,21.97
2023-05-13T04:55:15.833Z,22.73
2023-05-13T05:00:17.869Z,21.80
2023-05-13T05:05:22.260Z,23.60
2023-05-13T05:10:23.951Z,20.60
2023-05-13T05:15:32.677Z,21.43
2023-05-13T05:20:37.637Z,20.50
2023-05-13T05:25:41.666Z,23.57
2023-05-13T05:30:46.001Z,23.70
2023-05-13T05:35:54.225Z,22.27
2023-05-13T05:40:56.827Z,19.63
2023-05-13T05:45:58.436Z,18.13
2023-05-13T05:51:00.329Z,15.23
2023-05-13T05:56:06.360Z,13.40
2023-05-13T06:01:07.959Z,13.90
2023-05-13T06:06:09.267Z,12.15
2023-05-13T06:11:10.860Z,12.45
2023-05-13T06:16:12.381Z,11.55
2023-05-13T06:21:13.740Z,10.95
2023-05-13T06:26:15.003Z,10.10
2023-05-13T06:31:17.080Z,10.45
2023-05-13T06:36:19.114Z,9.75
2023-05-13T06:41:20.769Z,8.48
2023-05-13T06:46:24.032Z,8.07
2023-05-13T06:51:26.839Z,8.32
2023-05-13T06:56:29.394Z,8.05
2023-05-13T07:01:30.911Z,8.18
2023-05-13T07:06:32.867Z,7.35
2023-05-13T07:11:34.094Z,7.47
2023-05-13T07:16:35.240Z,8.05
2023-05-13T07:21:37.132Z,7.13
2023-05-13T07:26:39.104Z,7.13
2023-05-13T07:31:40.520Z,6.78
2023-05-13T07:36:42.020Z,6.57
2023-05-13T07:41:50.735Z,7.20
2023-05-13T07:46:52.889Z,6.97
2023-05-13T07:51:54.161Z,7.25
2023-05-13T07:56:55.386Z,7.20
2023-05-13T08:01:56.795Z,7.15
2023-05-13T08:06:58.487Z,7.13
2023-05-13T08:12:02.264Z,7.38
2023-05-13T08:17:06.030Z,7.15
2023-05-13T08:22:07.457Z,7.97
2023-05-13T08:27:08.752Z,8.18
2023-05-13T08:32:10.385Z,7.63
2023-05-13T08:37:12.350Z,7.03
2023-05-13T08:42:18.422Z,8.30
2023-05-13T08:47:56.186Z,7.85
2023-05-13T08:52:59.653Z,7.50
2023-05-13T08:58:01.072Z,8.00
2023-05-13T09:03:02.513Z,7.55
2023-05-13T09:08:08.538Z,7.05
2023-05-13T09:13:11.833Z,7.18
2023-05-13T09:18:16.499Z,7.63
2023-05-13T09:23:22.964Z,7.22
2023-05-13T09:28:24.185Z,7.18
2023-05-13T09:33:29.354Z,7.70
2023-05-13T09:38:36.504Z,6.63
2023-05-13T09:43:39.047Z,7.30
2023-05-13T09:48:42.829Z,6.97
2023-05-13T09:53:46.873Z,6.75
2023-05-13T09:58:52.164Z,7.38
2023-05-13T10:03:59.592Z,6.45
2023-05-13T10:09:04.981Z,6.70
2023-05-13T10:14:08.551Z,6.68
2023-05-13T10:19:11.047Z,6.55
2023-05-13T10:24:13.572Z,6.65
2023-05-13T10:29:16.114Z,6.07
2023-05-13T10:34:17.596Z,5.97
2023-05-13T10:40:01.130Z,6.07
2023-05-13T10:45:02.627Z,6.20
2023-05-13T10:50:05.902Z,5.70
2023-05-13T10:55:15.037Z,5.60
2023-05-13T11:00:19.367Z,6.80
2023-05-13T11:05:21.237Z,6.35
2023-05-13T11:10:30.548Z,5.93
2023-05-13T11:15:44.425Z,5.15
2023-05-13T11:20:55.611Z,4.70
2023-05-13T11:26:16.237Z,4.75
2023-05-13T11:31:17.706Z,4.70
2023-05-13T11:36:19.498Z,4.28
2023-05-13T11:41:21.043Z,4.90
2023-05-13T11:46:23.672Z,4.45
2023-05-13T11:51:24.895Z,4.43
2023-05-13T11:56:27.816Z,4.45
2023-05-13T12:01:31.187Z,4.50
2023-05-13T12:06:32.736Z,4.43
2023-05-13T12:11:34.672Z,4.45
2023-05-13T12:16:36.043Z,3.70
2023-05-13T12:21:37.757Z,4.10
2023-05-13T12:26:39.115Z,4.40
2023-05-13T12:31:43.151Z,3.80
2023-05-13T12:36:44.372Z,3.88
2023-05-13T12:41:51.328Z,4.13
2023-05-13T12:46:54.257Z,3.47
2023-05-13T12:51:56.272Z,3.13
2023-05-13T12:56:57.672Z,3.35
2023-05-13T13:02:01.870Z,4.30
2023-05-13T13:07:04.268Z,3.90
2023-05-13T13:12:05.883Z,3.50
2023-05-13T13:17:07.039Z,3.50
2023-05-13T13:22:08.244Z,3.42
2023-05-13T13:27:10.974Z,3.38
2023-05-13T13:32:13.024Z,3.10
2023-05-13T13:37:14.276Z,3.33
2023-05-13T13:42:24.946Z,3.15
2023-05-13T13:47:28.192Z,3.05
2023-05-13T13:52:30.293Z,3.13
2023-05-13T13:57:31.551Z,2.95
2023-05-13T14:02:33.158Z,2.90
2023-05-13T14:07:35.952Z,3.00
2023-05-13T14:12:37.856Z,2.70
2023-05-13T14:17:39.252Z,2.90
2023-05-13T14:22:40.837Z,2.95
2023-05-13T14:27:42.089Z,2.70
2023-05-13T14:32:44.460Z,3.15
2023-05-13T14:37:46.523Z,2.97
2023-05-13T14:42:51.072Z,2.72
2023-05-13T14:47:53.070Z,2.60
2023-05-13T14:52:54.280Z,2.92
2023-05-13T14:57:55.607Z,3.25
2023-05-13T15:02:57.613Z,3.13
2023-05-13T15:08:00.257Z,3.65
2023-05-13T15:13:01.855Z,3.33
2023-05-13T15:18:03.494Z,3.92
2023-05-13T15:23:04.817Z,3.63
2023-05-13T15:28:06.333Z,3.92
2023-05-13T15:33:08.226Z,3.30
2023-05-13T15:38:10.114Z,3.38
2023-05-13T15:43:11.328Z,3.50
2023-05-13T15:48:12.638Z,3.75
2023-05-13T15:53:17.180Z,4.70
2023-05-13T15:58:18.480Z,4.03
2023-05-13T16:03:22.890Z,3.58
2023-05-13T16:08:24.096Z,3.85
2023-05-13T16:13:25.878Z,3.53
2023-05-13T16:18:29.818Z,3.85
2023-05-13T16:23:31.261Z,3.97
2023-05-13T16:28:32.548Z,4.35
2023-05-13T16:33:35.534Z,4.78
2023-05-13T16:38:40.460Z,3.83
2023-05-13T16:43:41.725Z,3.75
2023-05-13T16:48:45.602Z,4.43
2023-05-13T16:53:47.081Z,3.78
2023-05-13T16:58:50.588Z,4.85
2023-05-13T17:03:52.003Z,4.80
2023-05-13T17:08:59.020Z,5.05
2023-05-13T17:14:00.256Z,6.07
2023-05-13T17:19:02.390Z,5.93
2023-05-13T17:24:06.836Z,6.20
2023-05-13T17:29:08.036Z,7.78
2023-05-13T17:34:09.553Z,7.70
2023-05-13T17:39:11.479Z,7.63
2023-05-13T17:44:12.918Z,8.80
2023-05-13T17:49:14.197Z,10.98
2023-05-13T17:54:18.166Z,12.13
2023-05-13T17:59:19.637Z,11.75
2023-05-13T18:04:21.057Z,11.95
2023-05-13T18:09:22.533Z,11.73
2023-05-13T18:14:24.152Z,10.75
2023-05-13T18:19:25.478Z,11.25
2023-05-13T18:24:27.110Z,12.65
2023-05-13T18:29:28.568Z,14.35
2023-05-13T18:34:30.504Z,15.35
2023-05-13T18:39:34.149Z,16.65
2023-05-13T18:44:35.375Z,16.10
2023-05-13T18:49:36.640Z,15.57
2023-05-13T18:54:38.349Z,16.38
2023-05-13T18:59:43.005Z,16.38
2023-05-13T19:04:44.180Z,16.45
2023-05-13T19:09:45.434Z,16.23
2023-05-13T19:14:46.825Z,15.75
2023-05-13T19:19:53.302Z,17.23
2023-05-13T19:24:54.669Z,16.45
2023-05-13T19:29:55.901Z,18.90
2023-05-13T19:35:03.010Z,17.77
2023-05-13T19:40:05.169Z,18.05
2023-05-13T19:45:07.339Z,18.88
2023-05-13T19:50:12.382Z,18.75
2023-05-13T19:55:13.610Z,18.90
2023-05-13T20:00:19.976Z,20.45
2023-05-13T20:05:21.361Z,20.60
2023-05-13T20:10:23.210Z,21.75
2023-05-13T20:15:24.835Z,22.13
2023-05-13T20:20:26.168Z,22.60
2023-05-13T20:25:27.716Z,22.85
2023-05-13T20:30:29.134Z,22.85
2023-05-13T20:35:30.382Z,23.43
2023-05-13T20:40:31.844Z,25.60
2023-05-13T20:45:35.681Z,24.77
2023-05-13T20:50:37.107Z,24.53
2023-05-13T20:55:38.502Z,24.40
2023-05-13T21:00:40.198Z,24.80
2023-05-13T21:05:41.406Z,26.47
2023-05-13T21:10:42.629Z,29.37
2023-05-13T21:15:43.840Z,27.50
2023-05-13T21:20:45.573Z,29.23
2023-05-13T21:25:47.206Z,30.13
2023-05-13T21:30:48.560Z,29.83
2023-05-13T21:35:50.988Z,32.30
2023-05-13T21:40:52.250Z,32.60
2023-05-13T21:45:53.465Z,29.60
2023-05-13T21:50:54.946Z,28.03
2023-05-13T21:55:58.204Z,30.70
2023-05-13T22:00:59.619Z,27.07
2023-05-13T22:06:01.678Z,32.30
2023-05-13T22:11:03.514Z,31.63
2023-05-13T22:16:04.988Z,34.23
2023-05-13T22:21:06.544Z,36.87
2023-05-13T22:26:07.907Z,33.63
2023-05-13T22:31:09.247Z,35.63
2023-05-13T22:36:11.470Z,36.30
2023-05-13T22:41:12.813Z,37.73
2023-05-13T22:46:13.974Z,34.87
2023-05-13T22:51:15.157Z,34.97
2023-05-13T22:56:16.571Z,36.73
2023-05-13T23:01:18.020Z,39.17
2023-05-13T23:06:19.245Z,38.63
2023-05-13T23:11:20.787Z,38.77
2023-05-13T23:16:22.285Z,39.13
2023-05-13T23:21:23.785Z,41.43
2023-05-13T23:26:25.211Z,40.83
2023-05-13T23:31:26.505Z,43.97
2023-05-13T23:36:27.752Z,43.07
2023-05-13T23:41:29.202Z,41.73
2023-05-13T23:46:31.285Z,45.40
2023-05-13T23:51:32.620Z,44.30
2023-05-13T23:56:34.162Z,47.50
